sensor_id;sensor_type;location;lat;lon;timestamp;pressure;altitude;pressure_sealevel;temperature;humidity
6859;BME280;3468;42.824;23.240;2023-07-13T00:00:36;69173.16;;;19.64;100.00
6859;BME280;3468;42.824;23.240;2023-07-13T00:03:02;69119.00;;;19.50;100.00
6859;BME280;3468;42.824;23.240;2023-07-13T00:05:29;69078.19;;;19.53;100.00
6859;BME280;3468;42.824;23.240;2023-07-13T00:07:57;69150.28;;;19.62;100.00
6859;BME280;3468;42.824;23.240;2023-07-13T00:10:24;69133.13;;;19.16;100.00
6859;BME280;3468;42.824;23.240;2023-07-13T00:12:51;69176.06;;;19.66;100.00
6859;BME280;3468;42.824;23.240;2023-07-13T00:15:27;69173.78;;;19.69;100.00
6859;BME280;3468;42.824;23.240;2023-07-13T00:17:55;69081.94;;;19.10;100.00
6859;BME280;3468;42.824;23.240;2023-07-13T00:20:23;69290.03;;;19.10;100.00
6859;BME280;3468;42.824;23.240;2023-07-13T00:22:51;69128.41;;;19.48;100.00
6859;BME280;3468;42.824;23.240;2023-07-13T00:25:19;69136.50;;;19.35;100.00
6859;BME280;3468;42.824;23.240;2023-07-13T00:27:47;69051.16;;;18.90;100.00
6859;BME280;3468;42.824;23.240;2023-07-13T00:30:15;69101.31;;;19.29;100.00
6859;BME280;3468;42.824;23.240;2023-07-13T00:32:43;69119.56;;;19.27;100.00
6859;BME280;3468;42.824;23.240;2023-07-13T00:35:13;69130.94;;;19.23;100.00
6859;BME280;3468;42.824;23.240;2023-07-13T00:37:40;69092.53;;;19.12;100.00
6859;BME280;3468;42.824;23.240;2023-07-13T00:40:08;69127.72;;;19.18;100.00
6859;BME280;3468;42.824;23.240;2023-07-13T00:42:36;69130.22;;;18.35;100.00
6859;BME280;3468;42.824;23.240;2023-07-13T00:45:05;69102.66;;;18.99;100.00
6859;BME280;3468;42.824;23.240;2023-07-13T00:47:32;69011.38;;;18.17;100.00
6859;BME280;3468;42.824;23.240;2023-07-13T00:50:01;69113.66;;;18.93;100.00
6859;BME280;3468;42.824;23.240;2023-07-13T00:52:29;68976.13;;;18.46;100.00
6859;BME280;3468;42.824;23.240;2023-07-13T00:54:57;69089.59;;;18.86;100.00
6859;BME280;3468;42.824;23.240;2023-07-13T00:57:24;69019.88;;;18.55;100.00
6859;BME280;3468;42.824;23.240;2023-07-13T00:59:54;69089.69;;;18.70;100.00
6859;BME280;3468;42.824;23.240;2023-07-13T01:02:22;69099.50;;;18.79;100.00
6859;BME280;3468;42.824;23.240;2023-07-13T01:04:49;69091.47;;;18.76;100.00
6859;BME280;3468;42.824;23.240;2023-07-13T01:07:18;69077.47;;;18.75;100.00
6859;BME280;3468;42.824;23.240;2023-07-13T01:09:45;69059.41;;;18.66;100.00
6859;BME280;3468;42.824;23.240;2023-07-13T01:12:12;69057.41;;;18.67;100.00
6859;BME280;3468;42.824;23.240;2023-07-13T01:14:39;69000.13;;;18.29;100.00
6859;BME280;3468;42.824;23.240;2023-07-13T01:17:08;69041.06;;;18.60;100.00
6859;BME280;3468;42.824;23.240;2023-07-13T01:19:37;69062.16;;;18.60;100.00
6859;BME280;3468;42.824;23.240;2023-07-13T01:22:08;68863.69;;;17.45;100.00
6859;BME280;3468;42.824;23.240;2023-07-13T01:24:37;69002.31;;;18.42;100.00
6859;BME280;3468;42.824;23.240;2023-07-13T01:27:05;69043.22;;;18.53;100.00
6859;BME280;3468;42.824;23.240;2023-07-13T01:29:35;69038.59;;;18.49;100.00
6859;BME280;3468;42.824;23.240;2023-07-13T01:32:08;69021.66;;;18.41;100.00
6859;BME280;3468;42.824;23.240;2023-07-13T01:34:35;69031.81;;;18.32;100.00
6859;BME280;3468;42.824;23.240;2023-07-13T01:37:02;69017.84;;;18.31;100.00
6859;BME280;3468;42.824;23.240;2023-07-13T01:39:31;69020.09;;;18.28;100.00
6859;BME280;3468;42.824;23.240;2023-07-13T01:41:58;69010.09;;;18.26;100.00
6859;BME280;3468;42.824;23.240;2023-07-13T01:44:25;68902.34;;;17.82;100.00
6859;BME280;3468;42.824;23.240;2023-07-13T01:46:52;69048.50;;;18.22;100.00
6859;BME280;3468;42.824;23.240;2023-07-13T01:49:19;68978.97;;;17.65;100.00
6859;BME280;3468;42.824;23.240;2023-07-13T01:51:46;68963.72;;;18.13;100.00
6859;BME280;3468;42.824;23.240;2023-07-13T01:54:13;69011.47;;;18.25;100.00
6859;BME280;3468;42.824;23.240;2023-07-13T01:56:41;69010.38;;;18.09;100.00
6859;BME280;3468;42.824;23.240;2023-07-13T01:59:08;69018.81;;;18.19;100.00
6859;BME280;3468;42.824;23.240;2023-07-13T02:01:34;68858.66;;;17.74;100.00
6859;BME280;3468;42.824;23.240;2023-07-13T02:04:01;69002.56;;;18.00;100.00
6859;BME280;3468;42.824;23.240;2023-07-13T02:06:28;69001.72;;;18.02;100.00
6859;BME280;3468;42.824;23.240;2023-07-13T02:08:55;68930.34;;;17.49;100.00
6859;BME280;3468;42.824;23.240;2023-07-13T02:11:22;68990.63;;;18.03;100.00
6859;BME280;3468;42.824;23.240;2023-07-13T02:13:50;68999.13;;;17.97;100.00
6859;BME280;3468;42.824;23.240;2023-07-13T02:16:17;68976.75;;;17.87;100.00
6859;BME280;3468;42.824;23.240;2023-07-13T02:18:44;68939.84;;;17.55;100.00
6859;BME280;3468;42.824;23.240;2023-07-13T02:21:10;68985.13;;;17.96;100.00
6859;BME280;3468;42.824;23.240;2023-07-13T02:23:37;68980.84;;;17.95;100.00
6859;BME280;3468;42.824;23.240;2023-07-13T02:26:04;68994.47;;;17.93;100.00
6859;BME280;3468;42.824;23.240;2023-07-13T02:28:31;68992.50;;;17.74;100.00
6859;BME280;3468;42.824;23.240;2023-07-13T02:31:06;68937.97;;;17.84;100.00
6859;BME280;3468;42.824;23.240;2023-07-13T02:33:33;69149.78;;;17.46;100.00
6859;BME280;3468;42.824;23.240;2023-07-13T02:36:00;68964.38;;;17.79;100.00
6859;BME280;3468;42.824;23.240;2023-07-13T02:38:26;68859.84;;;17.35;100.00
6859;BME280;3468;42.824;23.240;2023-07-13T02:40:53;68944.13;;;17.77;100.00
6859;BME280;3468;42.824;23.240;2023-07-13T02:43:21;68958.34;;;17.76;100.00
6859;BME280;3468;42.824;23.240;2023-07-13T02:45:48;68949.91;;;17.62;100.00
6859;BME280;3468;42.824;23.240;2023-07-13T02:48:16;68949.00;;;17.59;100.00
6859;BME280;3468;42.824;23.240;2023-07-13T02:50:44;68987.56;;;17.68;100.00
6859;BME280;3468;42.824;23.240;2023-07-13T02:53:11;68963.34;;;17.67;100.00
6859;BME280;3468;42.824;23.240;2023-07-13T02:55:38;68940.53;;;17.65;100.00
6859;BME280;3468;42.824;23.240;2023-07-13T02:58:06;68865.78;;;17.53;100.00
6859;BME280;3468;42.824;23.240;2023-07-13T03:00:33;68971.53;;;17.63;100.00
6859;BME280;3468;42.824;23.240;2023-07-13T03:02:59;68986.03;;;17.60;100.00
6859;BME280;3468;42.824;23.240;2023-07-13T03:05:27;69110.94;;;17.09;100.00
6859;BME280;3468;42.824;23.240;2023-07-13T03:07:54;69000.09;;;17.50;100.00
6859;BME280;3468;42.824;23.240;2023-07-13T03:10:21;68931.25;;;17.52;100.00
6859;BME280;3468;42.824;23.240;2023-07-13T03:12:48;68991.66;;;17.56;100.00
6859;BME280;3468;42.824;23.240;2023-07-13T03:15:15;68888.03;;;17.55;100.00
6859;BME280;3468;42.824;23.240;2023-07-13T03:17:41;68881.22;;;17.18;100.00
6859;BME280;3468;42.824;23.240;2023-07-13T03:20:09;68958.22;;;17.47;100.00
6859;BME280;3468;42.824;23.240;2023-07-13T03:22:37;68945.41;;;17.47;100.00
6859;BME280;3468;42.824;23.240;2023-07-13T03:25:04;68949.94;;;17.46;100.00
6859;BME280;3468;42.824;23.240;2023-07-13T03:27:31;68964.50;;;17.48;100.00
6859;BME280;3468;42.824;23.240;2023-07-13T03:29:58;68967.44;;;17.55;100.00
6859;BME280;3468;42.824;23.240;2023-07-13T03:32:25;68937.84;;;17.56;100.00
6859;BME280;3468;42.824;23.240;2023-07-13T03:34:52;68978.22;;;17.71;100.00
6859;BME280;3468;42.824;23.240;2023-07-13T03:37:18;68957.59;;;17.62;100.00
6859;BME280;3468;42.824;23.240;2023-07-13T03:39:46;69016.53;;;17.81;100.00
6859;BME280;3468;42.824;23.240;2023-07-13T03:42:13;68963.09;;;17.88;100.00
6859;BME280;3468;42.824;23.240;2023-07-13T03:44:40;68993.25;;;17.88;100.00
6859;BME280;3468;42.824;23.240;2023-07-13T03:47:07;68992.19;;;17.91;100.00
6859;BME280;3468;42.824;23.240;2023-07-13T03:49:34;69038.09;;;18.13;100.00
6859;BME280;3468;42.824;23.240;2023-07-13T03:52:01;69061.69;;;18.09;100.00
6859;BME280;3468;42.824;23.240;2023-07-13T03:54:28;69022.97;;;18.31;100.00
6859;BME280;3468;42.824;23.240;2023-07-13T03:56:56;69029.38;;;18.41;100.00
6859;BME280;3468;42.824;23.240;2023-07-13T03:59:22;69006.66;;;18.08;100.00
6859;BME280;3468;42.824;23.240;2023-07-13T04:01:49;69059.78;;;18.54;100.00
6859;BME280;3468;42.824;23.240;2023-07-13T04:04:16;69084.22;;;18.68;100.00
6859;BME280;3468;42.824;23.240;2023-07-13T04:06:43;69115.09;;;18.72;100.00
6859;BME280;3468;42.824;23.240;2023-07-13T04:09:09;69069.44;;;18.93;100.00
6859;BME280;3468;42.824;23.240;2023-07-13T04:11:36;69069.50;;;18.77;100.00
6859;BME280;3468;42.824;23.240;2023-07-13T04:14:04;69142.31;;;19.20;100.00
6859;BME280;3468;42.824;23.240;2023-07-13T04:16:31;69173.38;;;19.38;100.00
6859;BME280;3468;42.824;23.240;2023-07-13T04:18:58;69206.13;;;19.52;100.00
6859;BME280;3468;42.824;23.240;2023-07-13T04:21:26;69153.13;;;19.40;100.00
6859;BME280;3468;42.824;23.240;2023-07-13T04:23:53;69209.66;;;19.80;100.00
6859;BME280;3468;42.824;23.240;2023-07-13T04:26:20;69216.78;;;19.99;100.00
6859;BME280;3468;42.824;23.240;2023-07-13T04:28:48;69258.50;;;20.19;100.00
6859;BME280;3468;42.824;23.240;2023-07-13T04:31:16;69214.41;;;20.17;100.00
6859;BME280;3468;42.824;23.240;2023-07-13T04:33:43;69287.44;;;20.68;100.00
6859;BME280;3468;42.824;23.240;2023-07-13T04:36:10;69311.53;;;20.75;100.00
6859;BME280;3468;42.824;23.240;2023-07-13T04:38:37;69250.50;;;20.21;100.00
6859;BME280;3468;42.824;23.240;2023-07-13T04:41:05;69364.50;;;20.99;100.00
6859;BME280;3468;42.824;23.240;2023-07-13T04:43:33;69357.69;;;21.02;100.00
6859;BME280;3468;42.824;23.240;2023-07-13T04:46:04;69375.66;;;20.97;100.00
6859;BME280;3468;42.824;23.240;2023-07-13T04:48:33;69349.59;;;21.23;100.00
6859;BME280;3468;42.824;23.240;2023-07-13T04:51:00;69394.22;;;21.42;100.00
6859;BME280;3468;42.824;23.240;2023-07-13T04:53:27;69381.00;;;21.59;100.00
6859;BME280;3468;42.824;23.240;2023-07-13T04:55:54;69433.34;;;21.77;100.00
6859;BME280;3468;42.824;23.240;2023-07-13T04:58:21;69480.63;;;22.00;100.00
6859;BME280;3468;42.824;23.240;2023-07-13T05:00:48;69536.03;;;22.25;100.00
6859;BME280;3468;42.824;23.240;2023-07-13T05:03:15;69496.69;;;22.49;100.00
6859;BME280;3468;42.824;23.240;2023-07-13T05:05:54;69540.56;;;22.73;100.00
6859;BME280;3468;42.824;23.240;2023-07-13T05:08:21;69558.28;;;22.90;100.00
6859;BME280;3468;42.824;23.240;2023-07-13T05:10:47;69552.47;;;22.85;100.00
6859;BME280;3468;42.824;23.240;2023-07-13T05:13:14;69580.41;;;23.18;100.00
6859;BME280;3468;42.824;23.240;2023-07-13T05:15:41;69622.94;;;23.48;100.00
6859;BME280;3468;42.824;23.240;2023-07-13T05:18:08;69644.97;;;23.67;100.00
6859;BME280;3468;42.824;23.240;2023-07-13T05:20:34;69689.41;;;23.82;100.00
6859;BME280;3468;42.824;23.240;2023-07-13T05:23:02;69675.13;;;23.92;100.00
6859;BME280;3468;42.824;23.240;2023-07-13T05:25:29;69731.81;;;24.23;100.00
6859;BME280;3468;42.824;23.240;2023-07-13T05:27:56;69745.28;;;24.43;100.00
6859;BME280;3468;42.824;23.240;2023-07-13T05:30:23;69756.00;;;24.50;100.00
6859;BME280;3468;42.824;23.240;2023-07-13T05:32:49;69791.88;;;24.67;100.00
6859;BME280;3468;42.824;23.240;2023-07-13T05:35:16;69774.97;;;24.77;100.00
6859;BME280;3468;42.824;23.240;2023-07-13T05:37:43;69810.91;;;24.99;100.00
6859;BME280;3468;42.824;23.240;2023-07-13T05:40:11;69845.69;;;25.20;100.00
6859;BME280;3468;42.824;23.240;2023-07-13T05:42:38;69858.19;;;25.33;100.00
6859;BME280;3468;42.824;23.240;2023-07-13T05:45:05;69903.97;;;25.58;98.65
6859;BME280;3468;42.824;23.240;2023-07-13T05:47:32;69949.84;;;25.88;100.00
6859;BME280;3468;42.824;23.240;2023-07-13T05:49:59;69979.66;;;26.31;98.30
6859;BME280;3468;42.824;23.240;2023-07-13T05:52:26;70045.47;;;26.63;94.04
6859;BME280;3468;42.824;23.240;2023-07-13T05:54:52;69986.56;;;26.70;93.07
6859;BME280;3468;42.824;23.240;2023-07-13T05:57:20;70016.19;;;26.49;91.99
6859;BME280;3468;42.824;23.240;2023-07-13T05:59:47;70005.88;;;26.62;90.58
6859;BME280;3468;42.824;23.240;2023-07-13T06:02:14;70050.25;;;26.80;92.42
6859;BME280;3468;42.824;23.240;2023-07-13T06:04:41;70076.94;;;26.90;90.23
6859;BME280;3468;42.824;23.240;2023-07-13T06:07:07;70059.09;;;27.05;88.35
6859;BME280;3468;42.824;23.240;2023-07-13T06:09:34;70090.09;;;27.12;86.93
6859;BME280;3468;42.824;23.240;2023-07-13T06:12:01;70120.75;;;27.49;80.80
6859;BME280;3468;42.824;23.240;2023-07-13T06:14:29;70221.19;;;27.86;80.21
6859;BME280;3468;42.824;23.240;2023-07-13T06:16:56;70207.09;;;28.02;75.15
6859;BME280;3468;42.824;23.240;2023-07-13T06:19:22;70211.88;;;28.20;73.51
6859;BME280;3468;42.824;23.240;2023-07-13T06:21:49;70242.38;;;28.34;75.77
6859;BME280;3468;42.824;23.240;2023-07-13T06:24:16;70263.22;;;28.30;72.91
6859;BME280;3468;42.824;23.240;2023-07-13T06:26:43;70241.19;;;28.29;71.59
6859;BME280;3468;42.824;23.240;2023-07-13T06:29:09;70267.03;;;28.35;72.54
6859;BME280;3468;42.824;23.240;2023-07-13T06:31:38;70283.00;;;28.38;73.15
6859;BME280;3468;42.824;23.240;2023-07-13T06:34:04;70311.63;;;28.67;71.33
6859;BME280;3468;42.824;23.240;2023-07-13T06:36:31;70310.56;;;28.83;69.97
6859;BME280;3468;42.824;23.240;2023-07-13T06:38:58;70381.47;;;29.04;70.50
6859;BME280;3468;42.824;23.240;2023-07-13T06:41:25;70371.13;;;29.21;67.13
6859;BME280;3468;42.824;23.240;2023-07-13T06:43:51;70384.59;;;29.42;64.13
6859;BME280;3468;42.824;23.240;2023-07-13T06:46:20;70459.97;;;29.68;63.69
6859;BME280;3468;42.824;23.240;2023-07-13T06:48:48;70468.00;;;29.99;60.16
6859;BME280;3468;42.824;23.240;2023-07-13T06:51:15;70556.06;;;30.42;59.20
6859;BME280;3468;42.824;23.240;2023-07-13T06:53:42;70593.53;;;30.83;58.05
6859;BME280;3468;42.824;23.240;2023-07-13T06:56:09;70623.66;;;31.20;57.49
6859;BME280;3468;42.824;23.240;2023-07-13T06:58:36;70745.38;;;31.63;56.56
6859;BME280;3468;42.824;23.240;2023-07-13T07:01:03;70790.81;;;32.12;58.29
6859;BME280;3468;42.824;23.240;2023-07-13T07:03:30;70859.16;;;32.34;55.95
6859;BME280;3468;42.824;23.240;2023-07-13T07:06:01;70750.00;;;31.62;55.15
6859;BME280;3468;42.824;23.240;2023-07-13T07:08:28;70769.47;;;32.01;55.65
6859;BME280;3468;42.824;23.240;2023-07-13T07:10:55;70815.94;;;32.24;54.70
6859;BME280;3468;42.824;23.240;2023-07-13T07:13:21;70774.75;;;32.14;59.64
6859;BME280;3468;42.824;23.240;2023-07-13T07:15:50;70768.56;;;31.98;57.83
6859;BME280;3468;42.824;23.240;2023-07-13T07:18:16;70766.75;;;31.83;54.87
6859;BME280;3468;42.824;23.240;2023-07-13T07:20:43;70749.63;;;31.97;56.96
6859;BME280;3468;42.824;23.240;2023-07-13T07:23:11;70791.16;;;32.28;54.63
6859;BME280;3468;42.824;23.240;2023-07-13T07:25:39;70862.47;;;32.57;52.56
6859;BME280;3468;42.824;23.240;2023-07-13T07:28:07;70894.06;;;32.70;51.27
6859;BME280;3468;42.824;23.240;2023-07-13T07:30:34;70932.09;;;32.85;52.59
6859;BME280;3468;42.824;23.240;2023-07-13T07:33:01;70943.88;;;33.08;51.46
6859;BME280;3468;42.824;23.240;2023-07-13T07:35:27;70915.25;;;33.06;51.49
6859;BME280;3468;42.824;23.240;2023-07-13T07:37:54;70916.97;;;32.90;52.50
6859;BME280;3468;42.824;23.240;2023-07-13T07:40:22;70962.56;;;33.01;49.46
6859;BME280;3468;42.824;23.240;2023-07-13T07:42:49;70979.34;;;33.31;49.05
6859;BME280;3468;42.824;23.240;2023-07-13T07:45:16;71049.91;;;33.62;47.86
6859;BME280;3468;42.824;23.240;2023-07-13T07:47:43;71098.66;;;34.03;52.19
6859;BME280;3468;42.824;23.240;2023-07-13T07:50:10;71134.44;;;34.24;46.10
6859;BME280;3468;42.824;23.240;2023-07-13T07:52:37;71168.47;;;34.39;48.96
6859;BME280;3468;42.824;23.240;2023-07-13T07:55:05;71206.59;;;34.58;50.01
6859;BME280;3468;42.824;23.240;2023-07-13T07:57:33;71167.19;;;34.89;46.41
6859;BME280;3468;42.824;23.240;2023-07-13T08:00:00;71272.75;;;35.16;47.45
6859;BME280;3468;42.824;23.240;2023-07-13T08:02:27;71286.59;;;35.30;44.98
6859;BME280;3468;42.824;23.240;2023-07-13T08:04:54;71315.94;;;35.32;45.72
6859;BME280;3468;42.824;23.240;2023-07-13T08:07:21;71322.41;;;35.47;45.46
6859;BME280;3468;42.824;23.240;2023-07-13T08:09:48;71370.91;;;35.67;47.33
6859;BME280;3468;42.824;23.240;2023-07-13T08:12:17;71364.38;;;35.53;44.50
6859;BME280;3468;42.824;23.240;2023-07-13T08:14:45;71373.19;;;35.56;44.30
6859;BME280;3468;42.824;23.240;2023-07-13T08:17:15;71369.69;;;35.57;43.62
6859;BME280;3468;42.824;23.240;2023-07-13T08:19:42;71420.19;;;35.73;44.83
6859;BME280;3468;42.824;23.240;2023-07-13T08:22:09;71432.03;;;35.92;44.77
6859;BME280;3468;42.824;23.240;2023-07-13T08:24:36;71436.16;;;36.00;43.49
6859;BME280;3468;42.824;23.240;2023-07-13T08:27:03;71422.38;;;36.04;41.71
6859;BME280;3468;42.824;23.240;2023-07-13T08:29:29;71481.78;;;36.27;41.75
6859;BME280;3468;42.824;23.240;2023-07-13T08:31:58;71528.28;;;36.48;40.94
6859;BME280;3468;42.824;23.240;2023-07-13T08:34:25;71476.13;;;36.11;43.52
6859;BME280;3468;42.824;23.240;2023-07-13T08:36:52;71503.56;;;36.37;42.51
6859;BME280;3468;42.824;23.240;2023-07-13T08:39:18;71557.06;;;36.50;43.58
6859;BME280;3468;42.824;23.240;2023-07-13T08:41:46;71502.41;;;36.53;39.98
6859;BME280;3468;42.824;23.240;2023-07-13T08:44:29;71587.78;;;36.80;40.06
6859;BME280;3468;42.824;23.240;2023-07-13T08:47:00;71543.78;;;36.37;41.89
6859;BME280;3468;42.824;23.240;2023-07-13T08:49:27;71537.69;;;36.56;44.05
6859;BME280;3468;42.824;23.240;2023-07-13T08:51:57;71481.84;;;36.40;43.51
6859;BME280;3468;42.824;23.240;2023-07-13T08:54:29;71488.88;;;36.37;41.79
6859;BME280;3468;42.824;23.240;2023-07-13T08:56:59;71484.16;;;36.38;45.64
6859;BME280;3468;42.824;23.240;2023-07-13T08:59:31;71525.38;;;36.64;44.22
6859;BME280;3468;42.824;23.240;2023-07-13T09:02:15;71551.91;;;36.77;43.18
6859;BME280;3468;42.824;23.240;2023-07-13T09:04:47;71508.88;;;36.45;42.22
6859;BME280;3468;42.824;23.240;2023-07-13T09:07:24;71586.03;;;36.88;41.76
6859;BME280;3468;42.824;23.240;2023-07-13T09:10:04;71673.19;;;37.17;41.73
6859;BME280;3468;42.824;23.240;2023-07-13T09:12:38;71689.13;;;37.34;41.64
6859;BME280;3468;42.824;23.240;2023-07-13T09:15:19;71776.47;;;36.83;40.90
6859;BME280;3468;42.824;23.240;2023-07-13T09:17:51;71742.22;;;37.70;42.31
6859;BME280;3468;42.824;23.240;2023-07-13T09:20:25;71727.53;;;37.71;40.37
6859;BME280;3468;42.824;23.240;2023-07-13T09:22:54;71736.28;;;37.52;38.42
6859;BME280;3468;42.824;23.240;2023-07-13T09:25:29;71748.47;;;37.86;38.64
6859;BME280;3468;42.824;23.240;2023-07-13T09:27:59;71759.59;;;37.64;36.09
6859;BME280;3468;42.824;23.240;2023-07-13T09:30:33;71695.69;;;37.58;38.84
6859;BME280;3468;42.824;23.240;2023-07-13T09:33:02;71636.72;;;37.26;36.96
6859;BME280;3468;42.824;23.240;2023-07-13T09:35:30;71713.59;;;37.48;37.51
6859;BME280;3468;42.824;23.240;2023-07-13T09:37:59;71720.44;;;37.69;36.66
6859;BME280;3468;42.824;23.240;2023-07-13T09:40:36;71713.94;;;37.60;35.76
6859;BME280;3468;42.824;23.240;2023-07-13T09:43:07;71792.66;;;37.97;37.13
6859;BME280;3468;42.824;23.240;2023-07-13T09:45:40;71831.41;;;38.36;38.07
6859;BME280;3468;42.824;23.240;2023-07-13T09:48:15;71809.91;;;38.33;33.38
6859;BME280;3468;42.824;23.240;2023-07-13T09:50:44;71833.41;;;38.17;34.46
6859;BME280;3468;42.824;23.240;2023-07-13T09:53:12;71841.47;;;38.44;33.12
6859;BME280;3468;42.824;23.240;2023-07-13T09:55:40;71959.59;;;38.94;33.66
6859;BME280;3468;42.824;23.240;2023-07-13T09:58:11;71984.50;;;39.28;33.96
6859;BME280;3468;42.824;23.240;2023-07-13T10:00:39;71872.50;;;38.77;32.68
6859;BME280;3468;42.824;23.240;2023-07-13T10:03:17;72004.84;;;39.25;35.29
6859;BME280;3468;42.824;23.240;2023-07-13T10:05:48;71970.53;;;39.05;33.73
6859;BME280;3468;42.824;23.240;2023-07-13T10:08:23;71998.59;;;39.22;33.62
6859;BME280;3468;42.824;23.240;2023-07-13T10:10:58;72001.81;;;39.14;31.88
6859;BME280;3468;42.824;23.240;2023-07-13T10:13:28;72019.84;;;39.18;29.98
6859;BME280;3468;42.824;23.240;2023-07-13T10:15:57;71946.56;;;38.83;32.38
6859;BME280;3468;42.824;23.240;2023-07-13T10:18:26;71872.16;;;38.52;32.94
6859;BME280;3468;42.824;23.240;2023-07-13T10:21:09;71995.28;;;38.99;34.04
6859;BME280;3468;42.824;23.240;2023-07-13T10:23:37;71960.16;;;38.90;32.37
6859;BME280;3468;42.824;23.240;2023-07-13T10:26:05;71730.78;;;37.85;33.02
6859;BME280;3468;42.824;23.240;2023-07-13T10:28:36;71673.09;;;37.81;33.63
6859;BME280;3468;42.824;23.240;2023-07-13T10:31:08;71717.59;;;37.98;31.68
6859;BME280;3468;42.824;23.240;2023-07-13T10:33:38;71864.72;;;38.35;31.91
6859;BME280;3468;42.824;23.240;2023-07-13T10:36:23;71916.44;;;38.76;34.50
6859;BME280;3468;42.824;23.240;2023-07-13T10:38:53;71921.78;;;38.85;29.55
6859;BME280;3468;42.824;23.240;2023-07-13T10:41:24;71804.19;;;38.00;31.45
6859;BME280;3468;42.824;23.240;2023-07-13T10:43:52;71791.56;;;38.05;31.46
6859;BME280;3468;42.824;23.240;2023-07-13T10:46:23;71814.25;;;38.12;31.04
6859;BME280;3468;42.824;23.240;2023-07-13T10:48:56;71853.31;;;38.63;31.39
6859;BME280;3468;42.824;23.240;2023-07-13T10:51:25;71906.19;;;38.92;32.26
6859;BME280;3468;42.824;23.240;2023-07-13T10:54:18;72015.47;;;39.30;33.43
6859;BME280;3468;42.824;23.240;2023-07-13T10:56:50;72074.69;;;39.70;32.69
6859;BME280;3468;42.824;23.240;2023-07-13T10:59:18;72111.03;;;39.80;29.57
6859;BME280;3468;42.824;23.240;2023-07-13T11:01:55;72026.44;;;39.36;32.13
6859;BME280;3468;42.824;23.240;2023-07-13T11:04:25;71863.28;;;38.49;31.97
6859;BME280;3468;42.824;23.240;2023-07-13T11:06:56;71850.34;;;38.56;32.68
6859;BME280;3468;42.824;23.240;2023-07-13T11:09:36;71917.13;;;39.03;31.33
6859;BME280;3468;42.824;23.240;2023-07-13T11:12:09;71846.19;;;38.44;30.41
6859;BME280;3468;42.824;23.240;2023-07-13T11:15:02;71923.00;;;38.94;31.94
6859;BME280;3468;42.824;23.240;2023-07-13T11:17:38;72025.84;;;39.49;32.13
6859;BME280;3468;42.824;23.240;2023-07-13T11:20:32;72070.84;;;39.82;30.35
6859;BME280;3468;42.824;23.240;2023-07-13T11:23:20;72114.34;;;40.03;29.06
6859;BME280;3468;42.824;23.240;2023-07-13T11:25:47;72130.81;;;39.81;33.45
6859;BME280;3468;42.824;23.240;2023-07-13T11:28:22;72102.22;;;40.04;29.06
6859;BME280;3468;42.824;23.240;2023-07-13T11:31:00;72129.69;;;40.03;29.99
6859;BME280;3468;42.824;23.240;2023-07-13T11:33:43;72153.38;;;40.09;30.56
6859;BME280;3468;42.824;23.240;2023-07-13T11:36:15;72107.50;;;39.91;32.21
6859;BME280;3468;42.824;23.240;2023-07-13T11:38:43;72102.50;;;39.89;30.06
6859;BME280;3468;42.824;23.240;2023-07-13T11:41:16;72133.22;;;39.97;31.15
6859;BME280;3468;42.824;23.240;2023-07-13T11:43:44;72153.09;;;40.20;29.99
6859;BME280;3468;42.824;23.240;2023-07-13T11:46:15;72071.47;;;39.96;32.66
6859;BME280;3468;42.824;23.240;2023-07-13T11:48:44;72142.16;;;40.13;33.04
6859;BME280;3468;42.824;23.240;2023-07-13T11:51:20;72117.06;;;40.25;29.70
6859;BME280;3468;42.824;23.240;2023-07-13T11:53:50;72171.19;;;40.37;31.18
6859;BME280;3468;42.824;23.240;2023-07-13T11:56:17;72292.88;;;40.79;30.33
6859;BME280;3468;42.824;23.240;2023-07-13T11:58:48;72351.06;;;41.27;32.72
6859;BME280;3468;42.824;23.240;2023-07-13T12:01:20;72312.38;;;40.73;31.33
6859;BME280;3468;42.824;23.240;2023-07-13T12:03:48;72309.56;;;41.19;29.92
6859;BME280;3468;42.824;23.240;2023-07-13T12:06:29;72350.44;;;41.22;30.79
6859;BME280;3468;42.824;23.240;2023-07-13T12:08:57;72281.72;;;41.09;30.95
6859;BME280;3468;42.824;23.240;2023-07-13T12:11:25;72325.91;;;41.31;32.96
6859;BME280;3468;42.824;23.240;2023-07-13T12:13:52;72340.06;;;41.20;28.99
6859;BME280;3468;42.824;23.240;2023-07-13T12:16:25;72349.31;;;41.44;29.99
6859;BME280;3468;42.824;23.240;2023-07-13T12:18:54;72373.06;;;41.54;30.15
6859;BME280;3468;42.824;23.240;2023-07-13T12:21:32;72337.78;;;41.45;30.95
6859;BME280;3468;42.824;23.240;2023-07-13T12:23:59;72274.63;;;41.08;29.70
6859;BME280;3468;42.824;23.240;2023-07-13T12:26:29;72246.38;;;40.64;31.65
6859;BME280;3468;42.824;23.240;2023-07-13T12:28:58;72218.56;;;40.50;30.57
6859;BME280;3468;42.824;23.240;2023-07-13T12:31:31;71964.44;;;39.38;30.81
6859;BME280;3468;42.824;23.240;2023-07-13T12:34:01;71916.53;;;39.02;32.37
6859;BME280;3468;42.824;23.240;2023-07-13T12:36:35;71973.59;;;39.39;32.42
6859;BME280;3468;42.824;23.240;2023-07-13T12:39:11;71994.53;;;39.41;31.14
6859;BME280;3468;42.824;23.240;2023-07-13T12:41:38;72058.44;;;39.81;31.32
6859;BME280;3468;42.824;23.240;2023-07-13T12:44:10;72081.81;;;39.94;31.88
6859;BME280;3468;42.824;23.240;2023-07-13T12:46:38;72052.56;;;39.98;30.70
6859;BME280;3468;42.824;23.240;2023-07-13T12:49:06;72130.03;;;40.10;29.68
6859;BME280;3468;42.824;23.240;2023-07-13T12:51:36;72138.34;;;40.30;31.03
6859;BME280;3468;42.824;23.240;2023-07-13T12:54:14;72243.66;;;40.47;30.56
6859;BME280;3468;42.824;23.240;2023-07-13T12:56:42;72143.59;;;40.03;31.12
6859;BME280;3468;42.824;23.240;2023-07-13T12:59:16;72002.28;;;39.65;31.31
6859;BME280;3468;42.824;23.240;2023-07-13T13:01:46;72046.94;;;39.91;30.30
6859;BME280;3468;42.824;23.240;2023-07-13T13:04:12;72113.78;;;40.16;31.00
6859;BME280;3468;42.824;23.240;2023-07-13T13:06:41;72109.38;;;40.19;31.02
6859;BME280;3468;42.824;23.240;2023-07-13T13:09:11;72159.03;;;40.16;29.49
6859;BME280;3468;42.824;23.240;2023-07-13T13:11:40;72114.41;;;40.30;31.05
6859;BME280;3468;42.824;23.240;2023-07-13T13:14:07;72172.41;;;40.43;29.09